createdAt,value
2022-09-02T00:00:10.566Z,6.03
2022-09-02T00:02:42.181Z,6.03
2022-09-02T00:05:13.158Z,6.33
2022-09-02T00:07:44.044Z,6.50
2022-09-02T00:10:14.948Z,8.97
2022-09-02T00:12:45.929Z,6.63
2022-09-02T00:15:16.860Z,7.03
2022-09-02T00:17:47.966Z,6.47
2022-09-02T00:20:19.306Z,6.60
2022-09-02T00:22:50.300Z,7.47
2022-09-02T00:25:21.322Z,8.53
2022-09-02T00:27:52.250Z,6.03
2022-09-02T00:30:23.164Z,6.10
2022-09-02T00:32:54.621Z,6.77
2022-09-02T00:35:26.045Z,6.53
2022-09-02T00:37:57.008Z,6.50
2022-09-02T00:40:29.194Z,7.20
2022-09-02T00:43:00.472Z,6.30
2022-09-02T00:45:31.362Z,5.90
2022-09-02T00:48:02.656Z,6.90
2022-09-02T00:50:37.133Z,6.37
2022-09-02T00:53:11.519Z,6.43
2022-09-02T00:55:49.337Z,5.70
2022-09-02T00:58:26.744Z,7.13
2022-09-02T01:00:59.478Z,8.40
2022-09-02T01:03:33.006Z,6.17
2022-09-02T01:06:04.198Z,6.50
2022-09-02T01:08:39.250Z,6.43
2022-09-02T01:11:11.204Z,6.00
2022-09-02T01:13:43.683Z,5.80
2022-09-02T01:16:25.620Z,6.33
2022-09-02T01:19:00.907Z,6.40
2022-09-02T01:21:31.796Z,6.23
2022-09-02T01:24:03.038Z,5.87
2022-09-02T01:26:33.973Z,6.50
2022-09-02T01:29:04.966Z,5.83
2022-09-02T01:31:35.898Z,5.57
2022-09-02T01:34:06.848Z,6.13
2022-09-02T01:36:40.402Z,6.77
2022-09-02T01:39:12.904Z,6.40
2022-09-02T01:41:44.354Z,5.67
2022-09-02T01:44:17.809Z,6.83
2022-09-02T01:46:48.808Z,6.40
2022-09-02T01:49:21.060Z,6.33
2022-09-02T01:51:55.902Z,7.73
2022-09-02T01:54:27.227Z,6.30
2022-09-02T01:56:58.315Z,6.13
2022-09-02T01:59:29.596Z,6.07
2022-09-02T02:02:00.592Z,6.13
2022-09-02T02:04:31.541Z,6.20
2022-09-02T02:07:02.722Z,6.53
2022-09-02T02:09:33.832Z,6.40
2022-09-02T02:12:06.312Z,5.90
2022-09-02T02:14:37.714Z,6.73
2022-09-02T02:17:08.884Z,6.30
2022-09-02T02:19:39.904Z,5.63
2022-09-02T02:22:12.125Z,6.30
2022-09-02T02:24:43.048Z,7.40
2022-09-02T02:27:14.059Z,7.17
2022-09-02T02:29:44.960Z,6.73
2022-09-02T02:32:18.454Z,7.57
2022-09-02T02:34:49.495Z,7.33
2022-09-02T02:37:25.258Z,6.50
2022-09-02T02:39:57.461Z,6.50
2022-09-02T02:42:28.400Z,5.93
2022-09-02T02:44:59.315Z,7.47
2022-09-02T02:47:30.242Z,6.13
2022-09-02T02:50:01.200Z,7.43
2022-09-02T02:52:32.126Z,7.77
2022-09-02T02:55:03.757Z,6.70
2022-09-02T02:57:35.822Z,9.77
2022-09-02T03:00:14.191Z,7.63
2022-09-02T03:02:45.407Z,6.30
2022-09-02T03:05:17.158Z,8.67
2022-09-02T03:07:48.334Z,8.10
2022-09-02T03:10:20.750Z,7.10
2022-09-02T03:12:52.586Z,7.23
2022-09-02T03:15:23.553Z,8.73
2022-09-02T03:17:56.483Z,11.10
2022-09-02T03:20:27.625Z,6.63
2022-09-02T03:23:00.227Z,7.43
2022-09-02T03:25:35.817Z,7.07
2022-09-02T03:28:06.939Z,6.90
2022-09-02T03:30:40.570Z,6.63
2022-09-02T03:33:11.636Z,8.80
2022-09-02T03:35:44.778Z,6.87
2022-09-02T03:38:15.670Z,7.17
2022-09-02T03:40:46.664Z,9.30
2022-09-02T03:43:17.687Z,11.30
2022-09-02T03:45:48.850Z,5.70
2022-09-02T03:48:19.799Z,7.53
2022-09-02T03:50:50.904Z,6.70
2022-09-02T03:53:21.891Z,6.53
2022-09-02T03:55:52.923Z,6.73
2022-09-02T03:58:24.364Z,6.50
2022-09-02T04:00:55.847Z,12.30
2022-09-02T04:03:27.790Z,9.40
2022-09-02T04:05:58.951Z,6.17
2022-09-02T04:08:29.842Z,6.83
2022-09-02T04:11:09.990Z,7.80
2022-09-02T04:13:41.301Z,9.87
2022-09-02T04:16:17.639Z,6.50
2022-09-02T04:18:48.714Z,7.27
2022-09-02T04:21:19.818Z,6.30
2022-09-02T04:23:52.449Z,6.77
2022-09-02T04:26:23.750Z,6.03
2022-09-02T04:28:55.825Z,6.80
2022-09-02T04:31:32.075Z,6.80
2022-09-02T04:34:04.063Z,6.57
2022-09-02T04:36:35.046Z,6.30
2022-09-02T04:39:09.195Z,6.93
2022-09-02T04:41:40.248Z,7.70
2022-09-02T04:44:12.222Z,6.87
2022-09-02T04:46:43.191Z,6.80
2022-09-02T04:49:14.555Z,6.13
2022-09-02T04:51:45.500Z,7.00
2022-09-02T04:54:16.957Z,6.30
2022-09-02T04:56:47.863Z,6.37
2022-09-02T04:59:20.566Z,7.17
2022-09-02T05:01:51.675Z,7.10
2022-09-02T05:04:23.056Z,7.03
2022-09-02T05:06:55.002Z,6.10
2022-09-02T05:09:26.017Z,7.00
2022-09-02T05:12:02.310Z,11.00
2022-09-02T05:14:33.687Z,7.00
2022-09-02T05:17:07.713Z,9.10
2022-09-02T05:19:38.984Z,5.80
2022-09-02T05:22:10.454Z,6.93
2022-09-02T05:24:42.842Z,7.53
2022-09-02T05:27:16.327Z,5.90
2022-09-02T05:29:47.487Z,7.17
2022-09-02T05:32:18.483Z,6.90
2022-09-02T05:34:49.816Z,7.23
2022-09-02T05:37:20.995Z,6.30
2022-09-02T05:39:53.171Z,6.60
2022-09-02T05:42:24.127Z,6.77
2022-09-02T05:44:55.706Z,6.00
2022-09-02T05:47:26.611Z,6.63
2022-09-02T05:49:57.569Z,6.97
2022-09-02T05:52:30.027Z,6.87
2022-09-02T05:55:01.185Z,10.40
2022-09-02T05:57:32.193Z,6.40
2022-09-02T06:00:07.607Z,6.10
2022-09-02T06:02:38.608Z,6.20
2022-09-02T06:05:12.234Z,5.70
2022-09-02T06:07:43.329Z,6.17
2022-09-02T06:10:14.378Z,6.30
2022-09-02T06:12:45.278Z,6.30
2022-09-02T06:15:17.612Z,7.57
2022-09-02T06:17:48.569Z,5.57
2022-09-02T06:20:19.598Z,5.47
2022-09-02T06:22:50.487Z,6.30
2022-09-02T06:25:21.387Z,5.77
2022-09-02T06:27:52.282Z,5.83
2022-09-02T06:30:23.277Z,7.07
2022-09-02T06:32:54.229Z,5.03
2022-09-02T06:35:25.759Z,5.13
2022-09-02T06:37:56.674Z,4.60
2022-09-02T06:40:28.049Z,4.43
2022-09-02T06:42:59.123Z,4.57
2022-09-02T06:45:31.440Z,4.57
2022-09-02T06:48:02.793Z,4.20
2022-09-02T06:50:45.667Z,3.90
2022-09-02T06:53:17.950Z,4.20
2022-09-02T06:55:49.469Z,3.50
2022-09-02T06:58:20.396Z,7.60
2022-09-02T07:00:51.332Z,4.07
2022-09-02T07:03:40.950Z,4.13
2022-09-02T07:06:12.702Z,4.00
2022-09-02T07:08:44.499Z,4.07
2022-09-02T07:11:19.945Z,4.23
2022-09-02T07:13:51.255Z,4.57
2022-09-02T07:16:27.261Z,5.20
2022-09-02T07:18:58.519Z,3.80
2022-09-02T07:21:31.509Z,3.60
2022-09-02T07:24:02.958Z,3.20
2022-09-02T07:26:34.147Z,5.30
2022-09-02T07:29:08.868Z,3.40
2022-09-02T07:31:43.232Z,4.20
2022-09-02T07:34:15.201Z,4.40
2022-09-02T07:36:46.288Z,4.63
2022-09-02T07:39:19.543Z,4.90
2022-09-02T07:41:52.032Z,4.10
2022-09-02T07:44:23.285Z,5.13
2022-09-02T07:46:54.663Z,3.17
2022-09-02T07:49:26.270Z,3.67
2022-09-02T07:51:57.221Z,3.50
2022-09-02T07:54:28.264Z,5.00
2022-09-02T07:56:59.406Z,4.07
2022-09-02T07:59:30.859Z,3.67
2022-09-02T08:02:03.168Z,5.30
2022-09-02T08:04:34.128Z,4.00
2022-09-02T08:07:05.098Z,4.03
2022-09-02T08:09:36.135Z,4.20
2022-09-02T08:12:07.763Z,4.27
2022-09-02T08:14:38.709Z,4.10
2022-09-02T08:17:09.650Z,3.47
2022-09-02T08:19:40.584Z,4.87
2022-09-02T08:22:11.674Z,3.30
2022-09-02T08:24:42.734Z,3.63
2022-09-02T08:27:13.758Z,2.90
2022-09-02T08:29:44.864Z,2.97
2022-09-02T08:32:16.026Z,2.70
2022-09-02T08:34:47.071Z,4.03
2022-09-02T08:37:19.197Z,3.10
2022-09-02T08:39:50.150Z,3.67
2022-09-02T08:42:51.084Z,2.50
2022-09-02T08:45:30.004Z,5.80
2022-09-02T08:48:27.191Z,3.23
2022-09-02T08:51:06.306Z,2.57
2022-09-02T08:53:53.083Z,3.07
2022-09-02T08:56:24.611Z,3.10
2022-09-02T08:58:59.235Z,2.57
2022-09-02T09:01:38.373Z,2.80
2022-09-02T09:04:51.713Z,2.83
2022-09-02T09:08:02.605Z,4.17
2022-09-02T09:10:57.014Z,2.73
2022-09-02T09:14:10.081Z,3.23
2022-09-02T09:16:58.901Z,2.10
2022-09-02T09:19:54.997Z,3.23
2022-09-02T09:22:32.848Z,2.77
2022-09-02T09:25:14.393Z,4.70
2022-09-02T09:27:47.951Z,3.10
2022-09-02T09:30:19.117Z,2.40
2022-09-02T09:32:58.319Z,1.77
2022-09-02T09:35:54.424Z,2.13
2022-09-02T09:38:33.108Z,6.40
2022-09-02T09:41:29.136Z,1.80
2022-09-02T09:44:00.173Z,9.43
2022-09-02T09:46:32.457Z,2.30
2022-09-02T09:49:03.533Z,1.97
2022-09-02T09:51:40.030Z,2.77
2022-09-02T09:54:21.295Z,2.20
2022-09-02T09:56:55.135Z,1.80
2022-09-02T09:59:47.633Z,1.80
2022-09-02T10:02:25.645Z,2.83
2022-09-02T10:05:17.881Z,3.53
2022-09-02T10:08:10.018Z,2.53
2022-09-02T10:11:08.811Z,2.10
2022-09-02T10:13:39.937Z,2.00
2022-09-02T10:17:06.695Z,1.60
2022-09-02T10:19:59.827Z,1.93
2022-09-02T10:23:19.277Z,8.73
2022-09-02T10:26:20.183Z,2.00
2022-09-02T10:29:23.478Z,1.77
2022-09-02T10:32:12.525Z,1.77
2022-09-02T10:35:39.211Z,1.90
2022-09-02T10:38:45.230Z,2.50
2022-09-02T10:44:41.683Z,1.80
2022-09-02T10:47:32.612Z,9.23
2022-09-02T10:50:23.723Z,1.87
2022-09-02T10:53:39.672Z,2.73
2022-09-02T10:56:23.751Z,1.70
2022-09-02T10:59:10.747Z,1.50
2022-09-02T11:02:21.025Z,1.63
2022-09-02T11:05:02.482Z,2.40
2022-09-02T11:07:58.151Z,2.57
2022-09-02T11:10:32.952Z,1.40
2022-09-02T11:13:24.674Z,2.70
2022-09-02T11:16:15.298Z,1.53
2022-09-02T11:19:05.576Z,2.23
2022-09-02T11:22:15.390Z,1.30
2022-09-02T11:25:26.304Z,1.27
2022-09-02T11:28:19.399Z,1.30
2022-09-02T11:31:19.310Z,1.00
2022-09-02T11:34:40.076Z,1.10
2022-09-02T11:37:34.306Z,2.10
2022-09-02T11:40:37.472Z,1.50
2022-09-02T11:43:40.641Z,1.17
2022-09-02T11:46:26.676Z,2.40
2022-09-02T11:49:21.419Z,1.60
2022-09-02T11:52:44.544Z,3.30
2022-09-02T11:55:23.085Z,1.70
2022-09-02T11:57:58.407Z,4.20
2022-09-02T12:00:56.526Z,1.40
2022-09-02T12:03:52.199Z,2.23
2022-09-02T12:06:23.061Z,1.67
2022-09-02T12:08:55.586Z,1.40
2022-09-02T12:11:39.998Z,3.03
2022-09-02T12:14:27.052Z,1.50
2022-09-02T12:17:09.043Z,2.33
2022-09-02T12:19:45.523Z,2.17
2022-09-02T12:22:16.603Z,1.60
2022-09-02T12:24:56.324Z,1.27
2022-09-02T12:27:37.621Z,1.10
2022-09-02T12:30:12.794Z,1.23
2022-09-02T12:32:46.610Z,1.63
2022-09-02T12:35:50.868Z,1.70
2022-09-02T12:38:42.859Z,1.50
2022-09-02T12:41:24.325Z,1.30
2022-09-02T12:44:14.291Z,1.30
2022-09-02T12:46:56.417Z,1.73
2022-09-02T12:49:42.169Z,1.63
2022-09-02T12:52:36.400Z,1.70
2022-09-02T12:55:30.752Z,2.73
2022-09-02T12:58:14.729Z,4.87
2022-09-02T13:01:09.676Z,1.67
2022-09-02T13:03:43.838Z,1.70
2022-09-02T13:06:55.137Z,5.00
2022-09-02T13:10:00.275Z,1.20
2022-09-02T13:12:58.151Z,1.40
2022-09-02T13:16:24.938Z,1.53
2022-09-02T13:19:22.419Z,1.90
2022-09-02T13:22:40.591Z,3.90
2022-09-02T13:25:30.776Z,1.77
2022-09-02T13:28:17.497Z,5.93
2022-09-02T13:31:19.680Z,1.67
2022-09-02T13:34:12.177Z,1.20
2022-09-02T13:36:49.504Z,1.70
2022-09-02T13:39:26.766Z,1.87
2022-09-02T13:41:57.688Z,2.00
2022-09-02T13:44:29.621Z,1.60
2022-09-02T13:47:16.478Z,2.10
2022-09-02T13:49:50.387Z,1.73
2022-09-02T13:53:00.994Z,1.30
2022-09-02T13:55:19.674Z,1.80
2022-09-02T13:58:03.761Z,1.90
2022-09-02T14:00:42.298Z,1.50
2022-09-02T14:03:18.986Z,1.60
2022-09-02T14:05:55.568Z,2.83
2022-09-02T14:08:38.620Z,2.37
2022-09-02T14:11:15.775Z,1.40
2022-09-02T14:13:51.525Z,2.37
2022-09-02T14:16:33.587Z,7.37
2022-09-02T14:19:11.982Z,1.90
2022-09-02T14:21:58.352Z,2.80
2022-09-02T14:24:38.273Z,2.10
2022-09-02T14:27:18.991Z,2.80
2022-09-02T14:29:57.538Z,3.90
2022-09-02T14:32:29.000Z,1.77
2022-09-02T14:35:17.879Z,1.77
2022-09-02T14:37:57.857Z,3.43
2022-09-02T14:40:38.310Z,1.40
2022-09-02T14:43:17.545Z,1.73
2022-09-02T14:45:50.267Z,2.30
2022-09-02T14:48:26.098Z,5.30
2022-09-02T14:51:06.928Z,1.40
2022-09-02T14:53:43.097Z,1.63
2022-09-02T14:56:14.109Z,1.73
2022-09-02T14:58:44.990Z,1.70
2022-09-02T15:01:16.031Z,1.57
2022-09-02T15:03:50.488Z,5.60
2022-09-02T15:06:21.571Z,1.80
2022-09-02T15:08:52.470Z,1.53
2022-09-02T15:11:24.138Z,1.30
2022-09-02T15:13:55.101Z,1.90
2022-09-02T15:16:28.916Z,1.73
2022-09-02T15:19:00.126Z,3.03
2022-09-02T15:21:31.711Z,1.90
2022-09-02T15:24:02.948Z,4.23
2022-09-02T15:26:33.969Z,1.93
2022-09-02T15:29:05.122Z,2.10
2022-09-02T15:31:39.543Z,2.63
2022-09-02T15:34:10.622Z,1.70
2022-09-02T15:36:41.636Z,1.63
2022-09-02T15:39:12.751Z,1.70
2022-09-02T15:41:44.940Z,1.60
2022-09-02T15:44:17.229Z,9.53
2022-09-02T15:46:50.064Z,1.63
2022-09-02T15:49:23.709Z,2.40
2022-09-02T15:51:55.077Z,3.87
2022-09-02T15:54:26.229Z,2.60
2022-09-02T15:57:05.945Z,2.77
2022-09-02T15:59:37.443Z,1.67
2022-09-02T16:02:08.467Z,2.07
2022-09-02T16:04:41.959Z,3.70
2022-09-02T16:07:16.964Z,2.33
2022-09-02T16:09:48.769Z,2.00
2022-09-02T16:12:22.529Z,1.73
2022-09-02T16:14:55.977Z,2.70
2022-09-02T16:17:37.175Z,1.40
2022-09-02T16:20:12.352Z,2.10
2022-09-02T16:22:47.261Z,1.43
2022-09-02T16:25:22.535Z,1.70
2022-09-02T16:27:57.452Z,2.73
2022-09-02T16:30:32.099Z,1.83
2022-09-02T16:33:03.289Z,1.83
2022-09-02T16:35:41.923Z,2.50
2022-09-02T16:38:16.938Z,1.50
2022-09-02T16:40:57.140Z,2.60
2022-09-02T16:43:31.754Z,2.97
2022-09-02T16:46:05.321Z,2.20
2022-09-02T16:48:39.454Z,2.20
2022-09-02T16:51:10.444Z,1.67
2022-09-02T16:53:44.912Z,2.20
2022-09-02T16:56:23.937Z,1.80
2022-09-02T16:58:55.149Z,3.23
2022-09-02T17:01:32.405Z,2.00
2022-09-02T17:04:08.790Z,1.97
2022-09-02T17:06:42.189Z,3.30
2022-09-02T17:09:13.369Z,2.57
2022-09-02T17:11:45.594Z,3.33
2022-09-02T17:14:18.159Z,1.80
2022-09-02T17:16:52.977Z,3.27
2022-09-02T17:19:31.505Z,4.53
2022-09-02T17:22:05.420Z,3.17
2022-09-02T17:24:42.003Z,5.20
2022-09-02T17:27:13.017Z,4.13
2022-09-02T17:29:51.369Z,6.60
2022-09-02T17:32:22.320Z,2.27
2022-09-02T17:34:53.735Z,2.17
2022-09-02T17:37:29.517Z,2.57
2022-09-02T17:40:28.890Z,5.63
2022-09-02T17:42:59.814Z,2.97
2022-09-02T17:45:31.040Z,2.43
2022-09-02T17:48:31.900Z,2.70
2022-09-02T17:50:53.566Z,2.13
2022-09-02T17:53:25.531Z,1.93
2022-09-02T17:56:31.782Z,2.73
2022-09-02T17:59:11.907Z,2.50
2022-09-02T18:02:16.798Z,2.27
2022-09-02T18:04:58.995Z,2.33
2022-09-02T18:07:50.723Z,2.50
2022-09-02T18:10:22.754Z,5.13
2022-09-02T18:12:55.587Z,2.80
2022-09-02T18:15:26.724Z,2.40
2022-09-02T18:17:57.813Z,2.50
2022-09-02T18:20:43.665Z,2.43
2022-09-02T18:23:20.360Z,2.27
2022-09-02T18:26:23.273Z,2.20
2022-09-02T18:29:34.143Z,2.50
2022-09-02T18:32:38.291Z,2.93
2022-09-02T18:35:52.741Z,2.50
2022-09-02T18:39:05.197Z,4.40
2022-09-02T18:42:22.044Z,3.23
2022-09-02T18:45:21.836Z,2.47
2022-09-02T18:48:08.867Z,2.30
2022-09-02T18:51:01.868Z,2.93
2022-09-02T18:53:41.025Z,5.00
2022-09-02T18:56:15.668Z,2.37
2022-09-02T18:58:55.478Z,2.47
2022-09-02T19:01:45.505Z,2.20
2022-09-02T19:04:18.135Z,2.57
2022-09-02T19:06:49.570Z,2.83
2022-09-02T19:09:22.923Z,2.43
2022-09-02T19:11:53.824Z,3.53
2022-09-02T19:14:29.818Z,2.60
2022-09-02T19:17:01.022Z,2.47
2022-09-02T19:19:33.274Z,2.23
2022-09-02T19:22:10.555Z,2.37
2022-09-02T19:24:50.746Z,1.97
2022-09-02T19:27:27.865Z,2.80
2022-09-02T19:30:18.772Z,2.30
2022-09-02T19:32:53.383Z,3.93
2022-09-02T19:35:28.388Z,5.13
2022-09-02T19:37:59.354Z,2.67
2022-09-02T19:40:36.595Z,2.70
2022-09-02T19:43:07.610Z,2.60
2022-09-02T19:45:39.153Z,3.77
2022-09-02T19:48:11.475Z,4.10
2022-09-02T19:50:44.909Z,4.63
2022-09-02T19:53:30.305Z,2.50
2022-09-02T19:56:01.540Z,3.67
2022-09-02T19:58:34.914Z,5.53
2022-09-02T20:01:07.984Z,3.40
2022-09-02T20:03:38.963Z,2.83
2022-09-02T20:06:09.862Z,5.23
2022-09-02T20:08:40.765Z,2.67
2022-09-02T20:11:11.688Z,2.33
2022-09-02T20:13:44.472Z,2.40
2022-09-02T20:16:22.950Z,4.33
2022-09-02T20:18:56.750Z,2.70
2022-09-02T20:21:46.129Z,3.43
2022-09-02T20:24:31.574Z,3.57
2022-09-02T20:27:39.966Z,2.30
2022-09-02T20:30:16.849Z,3.00
2022-09-02T20:33:17.458Z,2.57
2022-09-02T20:36:12.482Z,2.43
2022-09-02T20:38:59.277Z,2.57
2022-09-02T20:41:41.617Z,3.07
2022-09-02T20:44:52.295Z,2.80
2022-09-02T20:47:48.037Z,2.67
2022-09-02T20:50:47.783Z,2.33
2022-09-02T20:53:22.026Z,3.27
2022-09-02T20:56:45.685Z,2.93
2022-09-02T21:00:01.080Z,2.07
2022-09-02T21:03:11.019Z,36.13
2022-09-02T21:05:49.221Z,3.33
2022-09-02T21:09:00.465Z,2.70
2022-09-02T21:11:44.605Z,3.03
2022-09-02T21:14:26.077Z,2.30
2022-09-02T21:17:07.157Z,2.17
2022-09-02T21:20:21.780Z,2.10
2022-09-02T21:22:58.660Z,2.17
2022-09-02T21:25:38.298Z,1.80
2022-09-02T21:28:16.439Z,2.40
2022-09-02T21:31:00.617Z,4.23
2022-09-02T21:33:33.593Z,2.33
2022-09-02T21:36:06.193Z,2.50
2022-09-02T21:38:46.074Z,3.33
2022-09-02T21:41:37.892Z,2.47
2022-09-02T21:44:23.221Z,6.40
2022-09-02T21:47:15.458Z,3.30
2022-09-02T21:49:56.487Z,3.17
2022-09-02T21:53:01.124Z,3.17
2022-09-02T21:56:07.441Z,3.50
2022-09-02T21:59:14.669Z,10.30
2022-09-02T22:02:12.654Z,4.43
2022-09-02T22:05:36.018Z,5.90
2022-09-02T22:08:25.679Z,37.30
2022-09-02T22:11:33.123Z,57.30
2022-09-02T22:14:21.054Z,63.57
2022-09-02T22:17:04.393Z,66.50
2022-09-02T22:19:38.989Z,15.43
2022-09-02T22:22:15.790Z,4.83
2022-09-02T22:24:47.815Z,8.03
2022-09-02T22:27:34.170Z,4.10
2022-09-02T22:30:14.658Z,3.30
2022-09-02T22:32:56.036Z,5.40
2022-09-02T22:35:52.653Z,3.83
2022-09-02T22:38:47.093Z,4.80
2022-09-02T22:41:25.354Z,4.97
2022-09-02T22:44:20.329Z,3.60
2022-09-02T22:47:27.385Z,3.97
2022-09-02T22:50:19.734Z,6.50
2022-09-02T22:52:54.916Z,3.83
2022-09-02T22:56:11.492Z,3.87
2022-09-02T22:59:16.906Z,3.90
2022-09-02T23:02:09.163Z,5.07
2022-09-02T23:05:30.667Z,4.00
2022-09-02T23:08:01.916Z,4.07
2022-09-02T23:10:47.303Z,4.47
2022-09-02T23:13:30.985Z,3.20
2022-09-02T23:16:20.728Z,4.40
2022-09-02T23:19:17.344Z,3.50
2022-09-02T23:22:06.040Z,2.70
2022-09-02T23:25:13.904Z,2.73
2022-09-02T23:28:03.947Z,2.87
2022-09-02T23:30:36.615Z,2.80
2022-09-02T23:33:43.373Z,3.43
2022-09-02T23:36:50.851Z,2.90
2022-09-02T23:39:25.134Z,2.93
2022-09-02T23:42:02.408Z,6.27
2022-09-02T23:44:33.390Z,2.63
2022-09-02T23:47:37.698Z,2.80
2022-09-02T23:51:09.500Z,3.23
2022-09-02T23:54:17.761Z,3.00
2022-09-02T23:57:06.859Z,2.70
